Airfield :
LOGIN :

Register | Disclaimer

   EN    FR    IT 

 










Legend :    VFR   Marginal VFR   IFR   Intensive IFR   Very Intensive IFR
Visi :
Ceiling :
>= 8 km
>= 3000ft
5 to 8 km
1000 to 3000 ft
1500m to 5 km
500 to 1000 ft
800 to 1500m
200 to 500 ft
< 800m
< 200 ft
Symbols :   Thunderstorms  Fog  Heavy snow  Heavy precipitations  Wind > 20 kt
SIGMETs :     Misc.  Thunderstorms  Icing  Turbulence  Mountain Waves  Volcanic Ashes







- Airport Elevation : 13 ft
- IATA code : LYX
- Download approach charts


EGMD - Lydd

CURRENT METAR :
  • 140350Z AUTO 25017KT 9999 NCD 04/01 Q0994

EXPIRED METARs :
  • 140320Z AUTO 26016KT 9999 NCD 04/01 Q0994
  • 140250Z AUTO 25012KT 9999 NCD 04/00 Q0994
  • 140220Z AUTO 27016KT 9999 NCD 04/00 Q0994
  • 140150Z AUTO 27018KT 9999 NCD 04/00 Q0994
  • 140120Z AUTO 27023KT 9999 NCD 05/00 Q0993

TAF TAF EGMD
Valid from the 14 at 03:00 until the 14 at 12:00 UTC


140155Z 1403/1412 26014KT 9999 FEW045
TEMPO 1403/1410 27020G30KT
ATIS : +44 1797 322 422
No reported NOTAMs for that airfield.
1 SIGMET reported for the London FIR (EGTT) :
 
Severe turbulence
EGTT SIGMET 01 VALID 140300/140700 EGRR
EGTT LONDON FIR SEV TURB FCST WI N5000 W00015 - N5000 W00200 - N4850 W00800 - N5100 W00800 - N5220 W00530 - N5330 W00530 - N5300 W00330 - N5100 W00330 - N5040 E00128 - N5000 W00015 SFC/FL060 STNR WKN=



MET'MAP, your aeronautical weather chart ! - Copyright ORBIFLY December 2007 - Disclaimer

ORBIFLY MET'MAP TEAM :

Programming & Development : Alexandra Zaïnal
Concept & Development : Baudouin d'Aumeries
Co-Development & Prog : Marc-Olivier Méhu
Technical & hardware support : Manuel Goepfert

Contact : metmap@orbifly.com




SOURCES & CREDITS :

   NOAA